createdAt,value
2022-09-01T04:17:26.409Z,84.12
2022-09-01T04:18:26.197Z,83.72
2022-09-01T04:19:27.162Z,83.81
2022-09-01T04:20:29.315Z,83.81
2022-09-01T04:21:31.510Z,83.81
2022-09-01T04:22:32.529Z,84.12
2022-09-01T04:23:34.663Z,83.92
2022-09-01T04:24:36.762Z,83.92
2022-09-01T04:25:38.918Z,84.12
2022-09-01T04:26:40.018Z,84.02
2022-09-01T04:27:42.139Z,83.81
2022-09-01T04:28:44.325Z,83.92
2022-09-01T04:29:46.471Z,83.92
2022-09-01T04:30:47.656Z,84.63
2022-09-01T04:31:49.122Z,84.22
2022-09-01T04:32:50.133Z,84.22
2022-09-01T04:33:52.270Z,83.92
2022-09-01T04:34:54.393Z,84.33
2022-09-01T04:36:02.537Z,83.61
2022-09-01T04:36:57.662Z,83.51
2022-09-01T04:37:58.719Z,83.51
2022-09-01T04:39:00.910Z,83.81
2022-09-01T04:40:01.959Z,83.61
2022-09-01T04:41:04.204Z,83.81
2022-09-01T04:42:06.329Z,83.81
2022-09-01T04:43:08.462Z,83.72
2022-09-01T04:44:10.776Z,83.61
2022-09-01T04:45:11.733Z,83.41
2022-09-01T04:46:12.735Z,83.47
2022-09-01T04:47:13.767Z,83.37
2022-09-01T04:48:15.944Z,83.06
2022-09-01T04:49:18.063Z,83.47
2022-09-01T04:50:19.398Z,83.67
2022-09-01T04:51:21.527Z,83.37
2022-09-01T04:52:23.673Z,83.06
2022-09-01T04:53:28.489Z,82.86
2022-09-01T04:54:27.457Z,82.96
2022-09-01T04:55:29.599Z,82.96
2022-09-01T04:56:31.689Z,82.76
2022-09-01T04:57:33.825Z,82.82
2022-09-01T04:58:35.957Z,82.31
2022-09-01T04:59:38.108Z,82.42
2022-09-01T05:00:40.355Z,82.11
2022-09-01T05:01:42.591Z,82.42
2022-09-01T05:02:44.734Z,82.21
2022-09-01T05:03:46.171Z,82.11
2022-09-01T05:04:47.130Z,82.11
2022-09-01T05:05:49.303Z,81.87
2022-09-01T05:06:51.431Z,81.15
2022-09-01T05:07:53.936Z,82.48
2022-09-01T05:08:55.088Z,81.26
2022-09-01T05:10:00.576Z,80.85
2022-09-01T05:10:57.378Z,80.85
2022-09-01T05:11:59.549Z,80.54
2022-09-01T05:13:01.676Z,80.71
2022-09-01T05:14:02.657Z,80.06
2022-09-01T05:15:03.634Z,78.36
2022-09-01T05:16:05.804Z,76.87
2022-09-01T05:17:07.935Z,75.31
2022-09-01T05:18:10.068Z,74.87
2022-09-01T05:19:11.029Z,74.06
2022-09-01T05:20:11.992Z,74.06
2022-09-01T05:21:13.029Z,73.22
2022-09-01T05:22:15.155Z,72.74
2022-09-01T05:23:16.481Z,71.26
2022-09-01T05:24:17.445Z,70.01
2022-09-01T05:25:19.725Z,67.96
2022-09-01T05:26:20.960Z,68.37
2022-09-01T05:27:23.090Z,68.46
2022-09-01T05:28:24.099Z,69.64
2022-09-01T05:29:26.351Z,71.23
2022-09-01T05:30:28.446Z,72.21
2022-09-01T05:31:30.656Z,73.25
2022-09-01T05:32:32.815Z,73.86
2022-09-01T05:33:34.943Z,73.86
2022-09-01T05:34:37.064Z,73.79
2022-09-01T05:35:39.243Z,74.91
2022-09-01T05:36:41.594Z,75.01
2022-09-01T05:37:43.735Z,74.74
2022-09-01T05:38:45.889Z,73.05
2022-09-01T05:39:47.003Z,70.72
2022-09-01T05:40:47.978Z,68.70
2022-09-01T05:41:50.171Z,68.06
2022-09-01T05:42:52.341Z,69.95
2022-09-01T05:44:00.082Z,71.63
2022-09-01T05:44:56.748Z,72.47
2022-09-01T05:46:06.670Z,72.78
2022-09-01T05:47:00.130Z,72.24
2022-09-01T05:48:01.179Z,71.97
2022-09-01T05:49:02.137Z,72.37
2022-09-01T05:50:04.232Z,72.98
2022-09-01T05:51:17.642Z,72.03
2022-09-01T05:52:08.820Z,71.94
2022-09-01T05:53:11.076Z,72.88
2022-09-01T05:54:10.716Z,72.78
2022-09-01T05:55:11.811Z,72.47
2022-09-01T05:56:13.911Z,72.98
2022-09-01T05:57:33.726Z,73.32
2022-09-01T05:58:18.286Z,74.67
2022-09-01T05:59:23.605Z,74.37
2022-09-01T06:00:20.518Z,74.81
2022-09-01T06:01:22.727Z,74.81
2022-09-01T06:02:25.923Z,75.07
2022-09-01T06:03:26.328Z,74.43
2022-09-01T06:04:27.434Z,72.71
2022-09-01T06:05:29.565Z,68.50
2022-09-01T06:06:43.733Z,66.19
2022-09-01T06:07:33.935Z,64.16
2022-09-01T06:08:35.006Z,63.68
2022-09-01T06:09:37.093Z,62.89
2022-09-01T06:10:39.272Z,61.45
2022-09-01T06:11:41.415Z,59.49
2022-09-01T06:12:43.501Z,61.28
2022-09-01T06:13:45.629Z,61.45
2022-09-01T06:14:47.724Z,59.52
2022-09-01T06:15:49.980Z,58.83
2022-09-01T06:16:50.973Z,57.80
2022-09-01T06:17:53.110Z,57.27
2022-09-01T06:18:55.237Z,55.41
2022-09-01T06:19:56.719Z,58.93
2022-09-01T06:20:58.887Z,57.00
2022-09-01T06:22:01.020Z,56.24
2022-09-01T06:23:03.144Z,55.69
2022-09-01T06:24:05.371Z,54.59
2022-09-01T06:25:07.497Z,53.28
2022-09-01T06:26:09.661Z,52.61
2022-09-01T06:27:10.700Z,51.72
2022-09-01T06:28:12.831Z,51.44
2022-09-01T06:29:15.017Z,51.79
2022-09-01T06:30:22.598Z,51.51
2022-09-01T06:31:19.534Z,51.94
2022-09-01T06:32:20.530Z,51.31
2022-09-01T06:33:22.654Z,51.26
2022-09-01T06:34:24.779Z,50.89
2022-09-01T06:35:25.735Z,50.57
2022-09-01T06:36:26.687Z,50.15
2022-09-01T06:37:28.812Z,49.45
2022-09-01T06:38:30.932Z,49.25
2022-09-01T06:39:33.061Z,50.52
2022-09-01T06:40:35.379Z,50.92
2022-09-01T06:41:36.499Z,51.09
2022-09-01T06:42:38.635Z,50.27
2022-09-01T06:43:40.751Z,49.80
2022-09-01T06:44:43.039Z,50.07
2022-09-01T06:45:45.158Z,49.01
2022-09-01T06:46:47.349Z,48.22
2022-09-01T06:47:48.405Z,46.85
2022-09-01T06:48:50.535Z,47.32
2022-09-01T06:49:57.318Z,47.89
2022-09-01T06:51:23.539Z,48.13
2022-09-01T06:51:56.198Z,48.11
2022-09-01T06:53:57.373Z,47.30
2022-09-01T06:55:00.386Z,45.67
2022-09-01T06:56:01.063Z,45.08
2022-09-01T06:58:03.398Z,45.50
2022-09-01T06:58:06.143Z,45.20
2022-09-01T06:59:05.268Z,45.45
2022-09-01T07:00:07.165Z,45.33
2022-09-01T07:01:09.288Z,43.86
2022-09-01T07:02:16.772Z,42.79
2022-09-01T07:03:13.078Z,43.19
2022-09-01T07:04:14.100Z,42.60
2022-09-01T07:05:59.832Z,43.65
2022-09-01T07:08:18.932Z,47.35
2022-09-01T07:09:22.163Z,46.97
2022-09-01T07:10:22.787Z,46.88
2022-09-01T07:12:08.506Z,47.17
2022-09-01T07:12:26.138Z,47.69
2022-09-01T07:13:26.334Z,48.41
2022-09-01T07:14:28.423Z,47.47
2022-09-01T07:16:33.869Z,47.10
2022-09-01T07:17:32.184Z,45.37
2022-09-01T07:18:34.301Z,44.86
2022-09-01T07:19:51.761Z,44.58
2022-09-01T07:21:02.710Z,45.81
2022-09-01T07:21:42.159Z,46.11
2022-09-01T07:23:10.526Z,46.19
2022-09-01T07:24:07.638Z,45.28
2022-09-01T07:24:45.411Z,44.98
2022-09-01T07:26:01.256Z,45.06
2022-09-01T07:26:48.245Z,44.32
2022-09-01T07:27:49.207Z,43.31
2022-09-01T07:28:50.466Z,44.36
2022-09-01T07:29:52.596Z,45.72
2022-09-01T07:30:54.881Z,47.83
2022-09-01T07:33:41.677Z,52.16
2022-09-01T07:35:00.842Z,53.54
2022-09-01T07:38:48.362Z,50.59
2022-09-01T07:43:10.562Z,54.94
2022-09-01T07:44:12.721Z,57.00
2022-09-01T07:45:29.328Z,58.12
2022-09-01T07:47:20.262Z,59.08
2022-09-01T07:50:07.965Z,61.08
2022-09-01T07:51:38.141Z,61.02
2022-09-01T07:52:24.517Z,60.32
2022-09-01T07:53:24.905Z,59.03
2022-09-01T07:54:26.026Z,57.40
2022-09-01T07:55:27.005Z,56.90
2022-09-01T07:56:29.199Z,55.94
2022-09-01T07:57:30.198Z,55.64
2022-09-01T07:58:32.319Z,55.41
2022-09-01T07:59:34.443Z,55.51
2022-09-01T08:00:36.594Z,54.26
2022-09-01T08:01:37.613Z,54.29
2022-09-01T08:02:39.841Z,55.67
2022-09-01T08:03:42.012Z,56.97
2022-09-01T08:04:44.139Z,56.40
2022-09-01T08:05:46.289Z,57.00
2022-09-01T08:06:48.446Z,57.87
2022-09-01T08:07:52.012Z,56.77
2022-09-01T08:08:56.984Z,57.62
2022-09-01T08:09:56.011Z,59.49
2022-09-01T08:11:04.265Z,58.99
2022-09-01T08:12:02.257Z,59.54
2022-09-01T08:12:59.129Z,60.15
2022-09-01T08:14:00.316Z,60.75
2022-09-01T08:16:08.434Z,60.68
2022-09-01T08:18:06.355Z,60.55
2022-09-01T08:19:16.343Z,60.68
2022-09-01T08:20:10.790Z,61.55
2022-09-01T08:21:11.550Z,61.05
2022-09-01T08:22:18.832Z,61.25
2022-09-01T08:23:14.039Z,61.22
2022-09-01T08:24:16.160Z,60.02
2022-09-01T08:25:21.815Z,60.29
2022-09-01T08:26:20.622Z,59.76
2022-09-01T08:27:21.593Z,58.95
2022-09-01T08:28:27.202Z,58.53
2022-09-01T08:29:25.998Z,59.20
2022-09-01T08:30:28.152Z,57.77
2022-09-01T08:31:30.971Z,57.04
2022-09-01T08:32:32.216Z,56.74
2022-09-01T08:33:34.375Z,57.01
2022-09-01T08:34:36.511Z,57.34
2022-09-01T08:35:38.693Z,57.37
2022-09-01T08:36:40.826Z,57.47
2022-09-01T08:37:43.139Z,57.77
2022-09-01T08:38:44.093Z,58.05
2022-09-01T08:39:46.292Z,56.74
2022-09-01T08:40:47.336Z,57.01
2022-09-01T08:41:48.334Z,55.94
2022-09-01T08:42:49.445Z,56.42
2022-09-01T08:43:51.581Z,56.01
2022-09-01T08:44:53.669Z,55.96
2022-09-01T08:45:55.931Z,55.06
2022-09-01T08:46:57.065Z,55.24
2022-09-01T08:48:29.007Z,54.91
2022-09-01T08:50:01.621Z,53.31
2022-09-01T08:51:07.130Z,53.88
2022-09-01T08:52:06.036Z,53.56
2022-09-01T08:53:10.158Z,53.81
2022-09-01T08:54:08.808Z,54.44
2022-09-01T08:55:10.938Z,55.04
2022-09-01T08:56:13.064Z,54.21
2022-09-01T08:57:15.190Z,54.71
2022-09-01T08:58:17.388Z,54.36
2022-09-01T08:59:18.528Z,52.29
2022-09-01T09:00:20.694Z,52.31
2022-09-01T09:01:22.975Z,52.91
2022-09-01T09:02:24.090Z,53.24
2022-09-01T09:03:25.049Z,53.11
2022-09-01T09:04:27.175Z,53.21
2022-09-01T09:05:29.299Z,53.51
2022-09-01T09:06:31.445Z,52.29
2022-09-01T09:07:33.625Z,52.24
2022-09-01T09:08:35.757Z,53.81
2022-09-01T09:09:37.891Z,51.61
2022-09-01T09:10:40.075Z,52.61
2022-09-01T09:11:42.171Z,51.81
2022-09-01T09:12:50.651Z,51.09
2022-09-01T09:13:46.678Z,51.22
2022-09-01T09:14:47.697Z,51.47
2022-09-01T09:15:49.864Z,51.09
2022-09-01T09:16:53.093Z,49.78
2022-09-01T09:17:59.030Z,49.40
2022-09-01T09:18:55.792Z,50.03
2022-09-01T09:19:56.071Z,50.35
2022-09-01T09:20:58.200Z,50.15
2022-09-01T09:22:00.381Z,50.47
2022-09-01T09:23:03.958Z,50.27
2022-09-01T09:24:03.861Z,50.84
2022-09-01T09:25:05.950Z,49.28
2022-09-01T09:26:08.405Z,46.88
2022-09-01T09:27:09.586Z,47.19
2022-09-01T09:28:10.835Z,44.20
2022-09-01T09:29:12.462Z,43.82
2022-09-01T09:30:14.654Z,42.14
2022-09-01T09:31:17.977Z,42.55
2022-09-01T09:32:44.244Z,43.51
2022-09-01T09:34:22.622Z,44.59
2022-09-01T09:35:24.882Z,42.77
2022-09-01T09:36:27.050Z,42.00
2022-09-01T09:37:29.175Z,41.33
2022-09-01T09:38:30.130Z,41.84
2022-09-01T09:39:31.097Z,43.96
2022-09-01T09:40:43.288Z,43.23
2022-09-01T09:41:36.083Z,42.35
2022-09-01T09:42:36.695Z,40.64
2022-09-01T09:43:36.602Z,39.59
2022-09-01T09:44:38.453Z,38.77
2022-09-01T09:45:41.982Z,37.70
2022-09-01T09:46:41.162Z,37.01
2022-09-01T09:47:44.719Z,38.24
2022-09-01T09:48:43.732Z,38.83
2022-09-01T09:49:48.854Z,38.32
2022-09-01T09:50:47.619Z,38.53
2022-09-01T09:51:49.387Z,38.45
2022-09-01T09:52:51.515Z,39.52
2022-09-01T09:53:54.335Z,39.06
2022-09-01T09:54:55.396Z,40.96
2022-09-01T09:55:57.574Z,40.70
2022-09-01T09:56:59.778Z,40.13
2022-09-01T09:58:00.763Z,39.99
2022-09-01T09:59:02.891Z,38.18
2022-09-01T10:00:03.864Z,36.55
2022-09-01T10:01:05.258Z,37.51
2022-09-01T10:02:06.457Z,36.99
2022-09-01T10:03:08.638Z,35.68
2022-09-01T10:04:09.973Z,35.17
2022-09-01T10:05:12.256Z,36.17
2022-09-01T10:06:13.475Z,36.25
2022-09-01T10:07:14.585Z,34.94
2022-09-01T10:08:15.907Z,34.55
2022-09-01T10:09:18.065Z,35.27
2022-09-01T10:10:20.397Z,37.01
2022-09-01T10:11:21.466Z,38.44
2022-09-01T10:12:23.085Z,37.01
2022-09-01T10:13:24.078Z,35.43
2022-09-01T10:14:50.298Z,35.40
2022-09-01T10:15:30.143Z,32.87
2022-09-01T10:16:29.112Z,33.85
2022-09-01T10:17:30.521Z,34.45
2022-09-01T10:18:32.874Z,34.76
2022-09-01T10:19:35.847Z,35.40
2022-09-01T10:20:35.887Z,36.70
2022-09-01T10:21:37.098Z,36.10
2022-09-01T10:22:39.308Z,35.77
2022-09-01T10:23:41.708Z,34.32
2022-09-01T10:24:45.916Z,34.53
2022-09-01T10:25:44.497Z,35.42
2022-09-01T10:26:45.545Z,35.87
2022-09-01T10:27:47.791Z,35.65
2022-09-01T10:28:50.820Z,36.32
2022-09-01T10:29:50.837Z,35.58
2022-09-01T10:30:53.061Z,35.49
2022-09-01T10:32:14.767Z,36.59
2022-09-01T10:33:01.483Z,35.49
2022-09-01T10:33:59.780Z,35.76
2022-09-01T10:35:00.902Z,36.98
2022-09-01T10:36:02.383Z,36.47
2022-09-01T10:37:03.725Z,36.74
2022-09-01T10:38:05.819Z,36.32
2022-09-01T10:39:09.086Z,36.30
2022-09-01T10:40:10.485Z,35.32
2022-09-01T10:41:14.777Z,36.76
2022-09-01T10:42:13.354Z,36.88
2022-09-01T10:43:14.850Z,35.34
2022-09-01T10:44:16.970Z,35.82
2022-09-01T10:45:19.092Z,35.91
2022-09-01T10:46:39.067Z,35.90
2022-09-01T10:47:23.575Z,33.88
2022-09-01T10:48:33.360Z,35.10
2022-09-01T10:49:27.715Z,35.62
2022-09-01T10:50:29.403Z,33.81
2022-09-01T10:51:36.353Z,33.23
2022-09-01T10:52:32.375Z,32.25
2022-09-01T10:53:33.927Z,32.72
2022-09-01T10:54:38.478Z,32.05
2022-09-01T10:55:36.209Z,32.25
2022-09-01T10:56:43.632Z,31.76
2022-09-01T10:57:42.348Z,31.81
2022-09-01T10:59:44.949Z,32.10
2022-09-01T11:01:10.710Z,32.18
2022-09-01T11:01:49.892Z,32.77
2022-09-01T11:02:46.973Z,31.38
2022-09-01T11:03:48.406Z,32.26
2022-09-01T11:04:49.517Z,31.80
2022-09-01T11:05:50.812Z,32.17
2022-09-01T11:08:01.757Z,32.70
2022-09-01T11:08:56.101Z,32.23
2022-09-01T11:09:57.731Z,31.10
2022-09-01T11:10:58.995Z,32.28
2022-09-01T11:12:00.017Z,33.21
2022-09-01T11:13:00.985Z,33.02
2022-09-01T11:14:02.556Z,35.36
2022-09-01T11:15:04.693Z,35.44
2022-09-01T11:16:06.969Z,37.08
2022-09-01T11:17:09.195Z,37.61
2022-09-01T11:18:10.181Z,37.51
2022-09-01T11:19:16.081Z,37.77
2022-09-01T11:20:12.538Z,35.47
2022-09-01T11:21:13.537Z,33.59
2022-09-01T11:22:14.502Z,33.09
2022-09-01T11:23:15.835Z,32.09
2022-09-01T11:24:17.932Z,31.40
2022-09-01T11:25:20.370Z,30.73
2022-09-01T11:26:22.495Z,31.06
2022-09-01T11:27:24.624Z,31.34
2022-09-01T11:28:26.242Z,31.92
2022-09-01T11:29:28.381Z,32.59
2022-09-01T11:30:30.479Z,35.62
2022-09-01T11:31:31.884Z,35.00
2022-09-01T11:32:32.876Z,36.91
2022-09-01T11:33:34.995Z,36.76
2022-09-01T11:34:36.074Z,38.60
2022-09-01T11:35:38.200Z,39.77
2022-09-01T11:36:40.326Z,40.99
2022-09-01T11:37:42.557Z,41.77
2022-09-01T11:38:44.704Z,41.79
2022-09-01T11:39:46.160Z,42.02
2022-09-01T11:40:47.304Z,42.24
2022-09-01T11:41:51.728Z,43.76
2022-09-01T11:42:50.584Z,43.26
2022-09-01T11:43:51.553Z,42.57
2022-09-01T11:44:54.089Z,43.93
2022-09-01T11:45:55.438Z,41.17
2022-09-01T11:46:56.473Z,41.47
2022-09-01T11:47:57.508Z,40.97
2022-09-01T11:48:59.664Z,42.44
2022-09-01T11:50:00.621Z,42.52
2022-09-01T11:51:01.886Z,40.22
2022-09-01T11:52:04.073Z,40.00
2022-09-01T11:53:06.292Z,41.01
2022-09-01T11:54:08.427Z,42.29
2022-09-01T11:55:10.605Z,41.69
2022-09-01T11:56:12.812Z,41.51
2022-09-01T11:57:14.948Z,42.52
2022-09-01T11:58:18.059Z,43.84
2022-09-01T11:59:18.040Z,43.88
2022-09-01T12:00:20.269Z,43.92
2022-09-01T12:01:21.217Z,44.64
2022-09-01T12:02:23.532Z,44.76
2022-09-01T12:03:24.934Z,43.67
2022-09-01T12:04:26.200Z,44.58
2022-09-01T12:05:28.333Z,45.68
2022-09-01T12:06:30.464Z,44.88
2022-09-01T12:07:32.671Z,45.80
2022-09-01T12:08:34.806Z,46.40
2022-09-01T12:09:36.937Z,46.78
2022-09-01T12:10:39.133Z,46.38
2022-09-01T12:11:41.276Z,46.50
2022-09-01T12:12:43.586Z,46.40
2022-09-01T12:13:44.543Z,47.20
2022-09-01T12:15:04.812Z,48.02
2022-09-01T12:16:14.184Z,47.65
2022-09-01T12:16:50.214Z,48.04
2022-09-01T12:17:51.326Z,48.74
2022-09-01T12:18:53.502Z,48.44
2022-09-01T12:19:55.590Z,48.44
2022-09-01T12:20:57.732Z,48.34
2022-09-01T12:21:59.918Z,48.34
2022-09-01T12:23:02.202Z,47.47
2022-09-01T12:24:04.328Z,49.16
2022-09-01T12:25:06.540Z,48.07
2022-09-01T12:26:07.503Z,48.57
2022-09-01T12:27:09.670Z,48.49
2022-09-01T12:28:11.806Z,48.49
2022-09-01T12:29:13.927Z,48.49
2022-09-01T12:30:16.040Z,49.29
2022-09-01T12:31:18.127Z,48.77
2022-09-01T12:32:20.290Z,49.16
2022-09-01T12:33:24.211Z,48.84
2022-09-01T12:34:24.407Z,47.94
2022-09-01T12:35:25.407Z,48.04
2022-09-01T12:36:27.557Z,48.02
2022-09-01T12:37:28.513Z,47.82
2022-09-01T12:38:29.478Z,47.44
2022-09-01T12:39:30.508Z,47.24
2022-09-01T12:40:32.685Z,47.14
2022-09-01T12:41:33.732Z,47.74
2022-09-01T12:42:41.582Z,46.82
2022-09-01T12:43:38.157Z,48.02
2022-09-01T12:44:39.582Z,47.62
2022-09-01T12:45:40.710Z,47.82
2022-09-01T12:46:42.886Z,47.52
2022-09-01T12:47:45.164Z,46.82
2022-09-01T12:48:46.613Z,47.82
2022-09-01T12:49:50.490Z,46.50
2022-09-01T12:50:49.721Z,45.80
2022-09-01T12:51:51.888Z,46.30
2022-09-01T12:52:54.135Z,46.20
2022-09-01T12:53:58.492Z,46.70
2022-09-01T12:54:58.529Z,45.80
2022-09-01T12:56:00.650Z,44.90
2022-09-01T12:57:02.829Z,45.20
2022-09-01T12:58:03.905Z,43.81
2022-09-01T12:59:07.787Z,45.10
2022-09-01T13:00:08.298Z,45.70
2022-09-01T13:01:16.016Z,44.70
2022-09-01T13:02:11.873Z,43.89
2022-09-01T13:03:11.731Z,43.98
2022-09-01T13:04:14.299Z,44.58
2022-09-01T13:05:15.651Z,44.58
2022-09-01T13:06:17.794Z,43.59
2022-09-01T13:07:19.922Z,44.88
2022-09-01T13:08:22.017Z,44.38
2022-09-01T13:09:24.150Z,43.18
2022-09-01T13:10:26.297Z,42.88
2022-09-01T13:12:06.041Z,42.09
2022-09-01T13:12:29.690Z,42.79
2022-09-01T13:13:31.826Z,42.59
2022-09-01T13:14:33.956Z,44.78
2022-09-01T13:15:36.083Z,45.18
2022-09-01T13:16:38.439Z,42.88
2022-09-01T13:17:40.532Z,43.48
2022-09-01T13:19:12.651Z,42.79
2022-09-01T13:19:45.031Z,44.36
2022-09-01T13:20:45.954Z,42.59
2022-09-01T13:21:48.083Z,42.11
2022-09-01T13:22:50.283Z,42.71
2022-09-01T13:23:52.459Z,45.88
2022-09-01T13:24:54.612Z,43.29
2022-09-01T13:25:57.060Z,41.89
2022-09-01T13:27:59.301Z,41.43
2022-09-01T13:29:00.255Z,41.91
2022-09-01T13:30:01.226Z,43.60
2022-09-01T13:32:21.346Z,40.69
2022-09-01T13:33:23.140Z,39.88
2022-09-01T13:34:10.423Z,39.97
2022-09-01T13:35:08.588Z,40.25
2022-09-01T13:37:11.066Z,41.15
2022-09-01T13:38:13.193Z,41.53
2022-09-01T13:39:15.668Z,39.64
2022-09-01T13:40:17.326Z,40.24
2022-09-01T13:41:19.463Z,40.82
2022-09-01T13:42:21.552Z,40.91
2022-09-01T13:43:23.711Z,39.82
2022-09-01T13:44:24.886Z,39.52
2022-09-01T13:45:25.977Z,40.71
2022-09-01T13:46:28.111Z,39.54
2022-09-01T13:47:30.771Z,40.03
2022-09-01T13:51:14.101Z,41.55
2022-09-01T13:51:36.579Z,42.25
2022-09-01T13:52:37.503Z,42.25
2022-09-01T13:53:39.634Z,42.74
2022-09-01T13:54:41.759Z,42.55
2022-09-01T13:55:43.881Z,42.25
2022-09-01T13:56:44.842Z,44.24
2022-09-01T13:57:45.804Z,40.44
2022-09-01T13:58:46.822Z,39.94
2022-09-01T13:59:48.030Z,40.22
2022-09-01T14:00:50.202Z,40.93
2022-09-01T14:01:51.172Z,40.63
2022-09-01T14:02:53.268Z,41.23
2022-09-01T14:04:00.140Z,42.60
2022-09-01T14:04:56.783Z,42.01
2022-09-01T14:05:58.961Z,43.20
2022-09-01T14:07:01.080Z,41.41
2022-09-01T14:08:03.207Z,41.41
2022-09-01T14:09:05.478Z,41.63
2022-09-01T14:10:07.633Z,41.93
2022-09-01T14:11:09.765Z,42.52
2022-09-01T14:12:11.845Z,41.85
2022-09-01T14:13:13.976Z,42.55
2022-09-01T14:14:16.106Z,42.17
2022-09-01T14:15:21.569Z,42.77
2022-09-01T14:16:19.623Z,43.56
2022-09-01T14:17:21.832Z,43.24
2022-09-01T14:18:24.033Z,43.07
2022-09-01T14:19:26.273Z,43.94
2022-09-01T14:20:28.361Z,42.65
2022-09-01T14:21:30.451Z,43.26
2022-09-01T14:22:36.451Z,43.68
2022-09-01T14:23:33.829Z,43.60
2022-09-01T14:24:36.403Z,43.90
2022-09-01T14:25:36.458Z,43.90
2022-09-01T14:26:38.582Z,43.40
2022-09-01T14:27:40.744Z,43.70
2022-09-01T14:28:41.777Z,45.18
2022-09-01T14:30:44.554Z,44.46
2022-09-01T14:31:46.889Z,44.38
2022-09-01T14:32:48.035Z,43.60
2022-09-01T14:33:50.167Z,43.90
2022-09-01T14:34:52.330Z,44.50
2022-09-01T14:35:53.353Z,44.53
2022-09-01T14:36:54.316Z,44.42
2022-09-01T14:37:56.440Z,44.31
2022-09-01T14:38:58.660Z,44.32
2022-09-01T14:40:00.880Z,44.53
2022-09-01T14:41:03.005Z,44.23
2022-09-01T14:42:05.245Z,44.53
2022-09-01T14:43:06.240Z,44.03
2022-09-01T14:44:08.364Z,44.12
2022-09-01T14:45:10.554Z,44.35
2022-09-01T14:46:12.883Z,43.55
2022-09-01T14:47:19.107Z,43.75
2022-09-01T14:48:16.104Z,44.73
2022-09-01T14:49:22.100Z,44.03
2022-09-01T14:50:21.750Z,44.53
2022-09-01T14:51:20.517Z,44.62
2022-09-01T14:52:22.646Z,43.55
2022-09-01T14:53:24.766Z,43.65
2022-09-01T14:54:26.903Z,44.95
2022-09-01T14:55:29.067Z,44.17
2022-09-01T14:56:31.204Z,44.27
2022-09-01T14:57:36.855Z,43.97
2022-09-01T14:58:35.525Z,43.97
2022-09-01T14:59:37.648Z,42.67
2022-09-01T15:00:39.795Z,44.07
2022-09-01T15:01:42.008Z,44.47
2022-09-01T15:02:44.196Z,44.07
2022-09-01T15:03:46.449Z,43.37
2022-09-01T15:04:48.568Z,43.69
2022-09-01T15:05:49.550Z,43.87
2022-09-01T15:06:51.682Z,43.29
2022-09-01T15:07:53.808Z,43.89
2022-09-01T15:08:56.336Z,43.79
2022-09-01T15:09:57.281Z,44.99
2022-09-01T15:10:59.409Z,43.89
2022-09-01T15:12:01.530Z,44.67
2022-09-01T15:13:03.658Z,43.97
2022-09-01T15:14:05.776Z,43.47
2022-09-01T15:15:08.009Z,43.47
2022-09-01T15:16:10.229Z,43.47
2022-09-01T15:17:11.222Z,43.27
2022-09-01T15:18:13.432Z,42.97
2022-09-01T15:19:15.567Z,42.89
2022-09-01T15:20:16.603Z,43.27
2022-09-01T15:21:17.527Z,43.07
2022-09-01T15:22:19.657Z,43.37
2022-09-01T15:23:21.786Z,45.07
2022-09-01T15:24:23.997Z,43.17
2022-09-01T15:25:24.984Z,42.97
2022-09-01T15:26:27.117Z,42.47
2022-09-01T15:27:29.258Z,42.37
2022-09-01T15:28:31.386Z,41.47
2022-09-01T15:29:33.534Z,41.97
2022-09-01T15:30:35.618Z,42.07
2022-09-01T15:31:37.886Z,41.87
2022-09-01T15:32:38.936Z,42.27
2022-09-01T15:33:41.060Z,43.47
2022-09-01T15:34:43.185Z,42.97
2022-09-01T15:35:45.343Z,42.57
2022-09-01T15:36:47.439Z,42.47
2022-09-01T15:37:49.603Z,42.17
2022-09-01T15:38:51.724Z,42.19
2022-09-01T15:39:53.845Z,43.17
2022-09-01T15:40:58.500Z,42.97
2022-09-01T15:41:57.465Z,44.77
2022-09-01T15:42:59.598Z,43.07
2022-09-01T15:44:01.720Z,43.67
2022-09-01T15:45:03.893Z,43.37
2022-09-01T15:46:04.906Z,43.47
2022-09-01T15:47:07.118Z,43.97
2022-09-01T15:48:08.107Z,44.67
2022-09-01T15:49:10.250Z,45.17
2022-09-01T15:50:12.376Z,45.37
2022-09-01T15:51:14.688Z,45.67
2022-09-01T15:52:15.649Z,46.06
2022-09-01T15:53:17.850Z,45.97
2022-09-01T15:54:20.023Z,45.26
2022-09-01T15:55:22.223Z,45.09
2022-09-01T15:56:23.208Z,45.19
2022-09-01T15:57:25.332Z,45.19
2022-09-01T15:58:44.522Z,45.09
2022-09-01T15:59:30.272Z,46.09
2022-09-01T16:00:31.305Z,45.19
2022-09-01T16:01:32.415Z,45.19
2022-09-01T16:02:34.725Z,45.21
2022-09-01T16:03:35.753Z,45.31
2022-09-01T16:04:36.991Z,45.51
2022-09-01T16:05:39.270Z,45.91
2022-09-01T16:06:40.201Z,45.71
2022-09-01T16:07:42.332Z,46.21
2022-09-01T16:08:50.624Z,45.61
2022-09-01T16:09:45.751Z,45.93
2022-09-01T16:10:47.874Z,46.43
2022-09-01T16:11:49.978Z,46.51
2022-09-01T16:12:52.269Z,46.11
2022-09-01T16:13:53.861Z,45.71
2022-09-01T16:14:54.949Z,46.11
2022-09-01T16:15:57.154Z,46.31
2022-09-01T16:16:59.534Z,46.71
2022-09-01T16:18:01.176Z,46.33
2022-09-01T16:19:02.581Z,46.43
2022-09-01T16:20:04.711Z,46.13
2022-09-01T16:21:05.904Z,47.03
2022-09-01T16:22:14.083Z,46.93
2022-09-01T16:23:09.481Z,46.93
2022-09-01T16:24:10.515Z,46.74
2022-09-01T16:25:12.668Z,46.93
2022-09-01T16:26:14.824Z,46.63
2022-09-01T16:27:16.980Z,46.93
2022-09-01T16:28:18.051Z,47.03
2022-09-01T16:29:20.267Z,47.54
2022-09-01T16:30:22.438Z,47.33
2022-09-01T16:31:23.458Z,47.33
2022-09-01T16:32:25.590Z,46.66
2022-09-01T16:33:26.662Z,46.66
2022-09-01T16:34:28.711Z,46.66
2022-09-01T16:35:29.855Z,46.96
2022-09-01T16:36:30.816Z,47.36
2022-09-01T16:37:38.623Z,49.16
2022-09-01T16:38:33.738Z,47.25
2022-09-01T16:39:35.869Z,47.16
2022-09-01T16:40:38.064Z,47.16
2022-09-01T16:41:40.283Z,47.36
2022-09-01T16:42:42.464Z,47.76
2022-09-01T16:43:43.659Z,47.36
2022-09-01T16:44:44.817Z,47.36
2022-09-01T16:45:47.377Z,47.28
2022-09-01T16:46:48.402Z,47.25
2022-09-01T16:47:50.562Z,46.96
2022-09-01T16:48:58.746Z,47.36
2022-09-01T16:49:53.893Z,47.38
2022-09-01T16:50:56.252Z,47.78
2022-09-01T16:51:58.094Z,47.88
2022-09-01T16:53:00.481Z,48.18
2022-09-01T16:54:01.445Z,48.08
2022-09-01T16:55:02.605Z,48.38
2022-09-01T16:56:04.733Z,48.38
2022-09-01T16:57:06.941Z,49.28
2022-09-01T16:58:09.161Z,48.48
2022-09-01T16:59:10.870Z,48.28
2022-09-01T17:00:13.028Z,48.58
2022-09-01T17:01:20.485Z,48.78
2022-09-01T17:02:15.691Z,48.98
2022-09-01T17:03:17.007Z,48.98
2022-09-01T17:04:18.465Z,49.58
2022-09-01T17:05:20.691Z,49.98
2022-09-01T17:06:21.883Z,50.01
2022-09-01T17:07:24.153Z,49.31
2022-09-01T17:08:25.564Z,49.91
2022-09-01T17:09:27.932Z,49.31
2022-09-01T17:10:30.050Z,49.51
2022-09-01T17:11:32.007Z,49.40
2022-09-01T17:12:33.183Z,49.60
2022-09-01T17:13:34.402Z,49.51
2022-09-01T17:14:36.522Z,49.91
2022-09-01T17:15:37.735Z,49.81
2022-09-01T17:16:39.753Z,50.01
2022-09-01T17:17:41.148Z,50.01
2022-09-01T17:18:42.675Z,50.01
2022-09-01T17:19:43.727Z,50.51
2022-09-01T17:20:48.262Z,51.11
2022-09-01T17:21:46.982Z,50.43
2022-09-01T17:22:47.957Z,50.53
2022-09-01T17:23:48.943Z,50.13
2022-09-01T17:24:51.126Z,50.13
2022-09-01T17:25:52.242Z,50.53
2022-09-01T17:27:00.451Z,50.73
2022-09-01T17:27:55.602Z,50.83
2022-09-01T17:28:57.769Z,50.73
2022-09-01T17:30:05.955Z,51.34
2022-09-01T17:31:01.148Z,50.93
2022-09-01T17:32:03.331Z,50.73
2022-09-01T17:33:05.463Z,50.86
2022-09-01T17:34:07.983Z,51.06
2022-09-01T17:35:08.955Z,51.06
2022-09-01T17:36:11.132Z,51.46
2022-09-01T17:37:12.268Z,51.36
2022-09-01T17:38:13.443Z,51.56
2022-09-01T17:39:15.558Z,51.86
2022-09-01T17:40:17.775Z,51.56
2022-09-01T17:41:19.973Z,51.86
2022-09-01T17:42:22.105Z,52.16
2022-09-01T17:43:24.215Z,51.98
2022-09-01T17:44:26.334Z,51.78
2022-09-01T17:45:34.834Z,52.39
2022-09-01T17:46:30.093Z,52.29
2022-09-01T17:47:32.462Z,52.29
2022-09-01T17:48:33.417Z,52.26
2022-09-01T17:49:34.367Z,52.66
2022-09-01T17:50:36.595Z,52.19
2022-09-01T17:51:38.270Z,52.79
2022-09-01T17:52:40.391Z,52.99
2022-09-01T17:53:41.619Z,53.19
2022-09-01T17:54:43.756Z,53.29
2022-09-01T17:55:45.718Z,53.29
2022-09-01T17:56:53.382Z,53.69
2022-09-01T17:57:48.735Z,53.69
2022-09-01T17:58:49.688Z,53.90
2022-09-01T17:59:51.774Z,54.10
